createdAt,value
2018-07-16T00:00:05.084Z,1.40
2018-07-16T00:01:05.325Z,1.30
2018-07-16T00:02:05.570Z,1.20
2018-07-16T00:03:05.816Z,1.40
2018-07-16T00:04:06.061Z,1.50
2018-07-16T00:05:06.303Z,1.40
2018-07-16T00:06:06.548Z,1.50
2018-07-16T00:07:06.790Z,1.40
2018-07-16T00:08:07.033Z,1.20
2018-07-16T00:09:07.276Z,1.20
2018-07-16T00:10:07.520Z,1.10
2018-07-16T00:11:07.761Z,1.30
2018-07-16T00:12:08.003Z,1.10
2018-07-16T00:13:08.247Z,1.20
2018-07-16T00:14:08.491Z,1.10
2018-07-16T00:15:08.733Z,1.10
2018-07-16T00:16:08.979Z,1.10
2018-07-16T00:17:09.222Z,1.00
2018-07-16T00:18:09.468Z,1.50
2018-07-16T00:19:09.711Z,1.30
2018-07-16T00:20:09.955Z,1.40
2018-07-16T00:21:10.200Z,1.00
2018-07-16T00:22:10.445Z,1.20
2018-07-16T00:23:10.687Z,1.20
2018-07-16T00:24:10.931Z,1.20
2018-07-16T00:25:11.174Z,1.10
2018-07-16T00:26:11.416Z,1.10
2018-07-16T00:27:11.662Z,1.10
2018-07-16T00:28:11.905Z,1.10
2018-07-16T00:29:12.148Z,1.20
2018-07-16T00:30:12.392Z,1.20
2018-07-16T00:31:12.636Z,1.50
2018-07-16T00:32:12.879Z,1.30
2018-07-16T00:33:13.124Z,1.30
2018-07-16T00:34:13.368Z,1.20
2018-07-16T00:35:13.612Z,1.30
2018-07-16T00:36:13.856Z,1.50
2018-07-16T00:37:14.097Z,1.70
2018-07-16T00:38:14.342Z,1.50
2018-07-16T00:39:14.585Z,1.50
2018-07-16T00:40:14.828Z,1.30
2018-07-16T00:41:15.071Z,1.20
2018-07-16T00:42:15.316Z,1.50
2018-07-16T00:43:15.562Z,1.40
2018-07-16T00:44:15.854Z,1.30
2018-07-16T00:45:16.049Z,1.60
2018-07-16T00:46:16.291Z,1.40
2018-07-16T00:47:16.536Z,1.20
2018-07-16T00:48:16.780Z,1.40
2018-07-16T00:49:17.024Z,1.30
2018-07-16T00:50:17.266Z,1.30
2018-07-16T00:51:17.511Z,1.30
2018-07-16T00:52:17.755Z,1.40
2018-07-16T00:53:17.998Z,1.10
2018-07-16T00:54:18.242Z,1.30
2018-07-16T00:55:18.490Z,1.40
2018-07-16T00:56:18.761Z,1.50
2018-07-16T00:57:18.969Z,1.30
2018-07-16T00:58:19.212Z,1.30
2018-07-16T00:59:19.456Z,1.20
2018-07-16T01:00:19.717Z,1.30
2018-07-16T01:01:19.943Z,1.20
2018-07-16T01:02:20.187Z,1.20
2018-07-16T01:03:20.431Z,1.40
2018-07-16T01:04:20.673Z,1.10
2018-07-16T01:05:20.916Z,1.30
2018-07-16T01:06:21.161Z,1.20
2018-07-16T01:07:21.403Z,1.30
2018-07-16T01:08:21.647Z,1.50
2018-07-16T01:09:21.892Z,1.30
2018-07-16T01:10:22.136Z,1.30
2018-07-16T01:11:22.378Z,1.20
2018-07-16T01:12:22.621Z,1.20
2018-07-16T01:13:22.865Z,1.10
2018-07-16T01:14:23.108Z,1.20
2018-07-16T01:15:23.351Z,1.20
2018-07-16T01:16:23.595Z,1.10
2018-07-16T01:17:23.839Z,1.00
2018-07-16T01:18:24.089Z,1.60
2018-07-16T01:19:24.330Z,1.20
2018-07-16T01:20:24.573Z,1.30
2018-07-16T01:21:24.815Z,1.20
2018-07-16T01:22:25.059Z,1.30
2018-07-16T01:23:25.302Z,1.20
2018-07-16T01:24:25.548Z,1.20
2018-07-16T01:25:25.791Z,1.20
2018-07-16T01:26:26.035Z,1.30
2018-07-16T01:27:26.278Z,1.20
2018-07-16T01:28:26.522Z,1.40
2018-07-16T01:29:26.765Z,1.40
2018-07-16T01:30:27.010Z,1.30
2018-07-16T01:31:27.251Z,1.10
2018-07-16T01:32:27.496Z,1.20
2018-07-16T01:33:27.739Z,1.40
2018-07-16T01:34:27.980Z,1.30
2018-07-16T01:35:28.225Z,1.20
2018-07-16T01:36:28.469Z,1.20
2018-07-16T01:37:28.716Z,1.00
2018-07-16T01:38:28.958Z,1.30
2018-07-16T01:39:29.201Z,1.30
2018-07-16T01:40:29.444Z,1.30
2018-07-16T01:41:29.689Z,1.30
2018-07-16T01:42:29.931Z,1.40
2018-07-16T01:43:30.175Z,1.20
2018-07-16T01:44:30.416Z,1.10
2018-07-16T01:45:30.660Z,1.10
2018-07-16T01:46:30.901Z,1.20
2018-07-16T01:47:31.146Z,1.20
2018-07-16T01:48:31.390Z,1.20
2018-07-16T01:49:31.633Z,1.20
2018-07-16T01:50:31.876Z,1.10
2018-07-16T01:51:32.120Z,1.30
2018-07-16T01:52:32.362Z,1.20
2018-07-16T01:53:32.604Z,1.20
2018-07-16T01:54:32.847Z,1.40
2018-07-16T01:55:33.088Z,1.00
2018-07-16T01:56:33.333Z,1.10
2018-07-16T01:57:33.575Z,1.20
2018-07-16T01:58:33.819Z,1.20
2018-07-16T01:59:34.062Z,1.70
2018-07-16T02:00:34.301Z,1.10
2018-07-16T02:01:34.549Z,1.30
2018-07-16T02:02:34.790Z,1.30
2018-07-16T02:03:35.032Z,1.10
2018-07-16T02:04:35.276Z,1.50
2018-07-16T02:05:35.518Z,1.50
2018-07-16T02:06:35.762Z,1.40
2018-07-16T02:07:36.005Z,1.80
2018-07-16T02:08:36.246Z,1.40
2018-07-16T02:09:36.490Z,1.30
2018-07-16T02:10:36.733Z,1.40
2018-07-16T02:11:36.976Z,1.20
2018-07-16T02:12:37.220Z,1.40
2018-07-16T02:13:37.464Z,1.20
2018-07-16T02:14:37.705Z,1.20
2018-07-16T02:15:37.948Z,1.10
2018-07-16T02:16:38.192Z,1.50
2018-07-16T02:17:38.433Z,1.10
2018-07-16T02:18:38.699Z,1.40
2018-07-16T02:19:38.918Z,1.40
2018-07-16T02:20:39.160Z,1.30
2018-07-16T02:21:39.403Z,1.20
2018-07-16T02:22:39.649Z,1.60
2018-07-16T02:23:39.891Z,1.30
2018-07-16T02:24:40.142Z,1.20
2018-07-16T02:25:40.379Z,1.30
2018-07-16T02:26:40.624Z,1.30
2018-07-16T02:27:40.866Z,1.00
2018-07-16T02:28:41.108Z,1.20
2018-07-16T02:29:41.351Z,1.50
2018-07-16T02:30:41.595Z,1.40
2018-07-16T02:31:41.839Z,1.60
2018-07-16T02:32:42.083Z,1.80
2018-07-16T02:33:42.324Z,1.50
2018-07-16T02:34:42.568Z,1.70
2018-07-16T02:35:42.815Z,1.40
2018-07-16T02:36:43.053Z,1.60
2018-07-16T02:37:43.297Z,1.70
2018-07-16T02:38:43.541Z,1.40
2018-07-16T02:39:43.781Z,1.40
2018-07-16T02:40:44.026Z,1.40
2018-07-16T02:41:44.267Z,1.20
2018-07-16T02:42:44.509Z,1.60
2018-07-16T02:43:44.751Z,1.50
2018-07-16T02:44:44.995Z,1.80
2018-07-16T02:45:45.236Z,1.70
2018-07-16T02:46:45.481Z,2.10
2018-07-16T02:47:45.722Z,1.90
2018-07-16T02:48:45.964Z,2.10
2018-07-16T02:49:46.208Z,2.30
2018-07-16T02:50:46.453Z,2.10
2018-07-16T02:51:46.695Z,2.40
2018-07-16T02:52:46.938Z,2.00
2018-07-16T02:53:47.181Z,2.30
2018-07-16T02:54:47.424Z,2.20
2018-07-16T02:55:47.668Z,2.30
2018-07-16T02:56:47.912Z,2.20
2018-07-16T02:57:48.155Z,2.30
2018-07-16T02:58:48.398Z,2.30
2018-07-16T02:59:48.642Z,2.90
2018-07-16T03:00:48.888Z,2.30
2018-07-16T03:01:49.128Z,2.50
2018-07-16T03:02:49.374Z,2.50
2018-07-16T03:03:49.616Z,2.10
2018-07-16T03:04:49.858Z,2.40
2018-07-16T03:05:50.101Z,2.80
2018-07-16T03:06:50.341Z,2.80
2018-07-16T03:07:50.590Z,2.70
2018-07-16T03:08:50.827Z,2.70
2018-07-16T03:09:51.072Z,2.80
2018-07-16T03:10:51.317Z,2.30
2018-07-16T03:11:51.565Z,2.70
2018-07-16T03:12:51.800Z,2.80
2018-07-16T03:13:52.045Z,2.90
2018-07-16T03:14:52.290Z,2.70
2018-07-16T03:15:52.532Z,2.50
2018-07-16T03:16:52.773Z,2.90
2018-07-16T03:17:53.048Z,2.90
2018-07-16T03:18:53.260Z,2.60
2018-07-16T03:19:53.505Z,2.50
2018-07-16T03:20:53.748Z,2.50
2018-07-16T03:21:53.989Z,2.50
2018-07-16T03:22:54.231Z,2.00
2018-07-16T03:23:54.474Z,2.20
2018-07-16T03:24:54.717Z,2.40
2018-07-16T03:25:54.962Z,2.30
2018-07-16T03:26:55.202Z,2.20
2018-07-16T03:27:55.454Z,2.80
2018-07-16T03:28:55.688Z,2.40
2018-07-16T03:29:55.930Z,2.20
2018-07-16T03:30:56.173Z,2.60
2018-07-16T03:31:56.417Z,2.60
2018-07-16T03:32:56.659Z,2.20
2018-07-16T03:33:56.902Z,2.50
2018-07-16T03:34:57.144Z,1.90
2018-07-16T03:35:57.386Z,2.30
2018-07-16T03:36:57.627Z,2.30
2018-07-16T03:37:57.870Z,2.80
2018-07-16T03:38:58.111Z,2.70
2018-07-16T03:39:58.351Z,2.90
2018-07-16T03:40:58.595Z,2.40
2018-07-16T03:41:58.839Z,2.40
2018-07-16T03:42:59.083Z,2.40
2018-07-16T03:43:59.332Z,2.30
2018-07-16T03:44:59.568Z,2.10
2018-07-16T03:45:59.812Z,2.30
2018-07-16T03:47:00.055Z,2.00
2018-07-16T03:48:00.311Z,2.20
2018-07-16T03:49:00.542Z,2.20
2018-07-16T03:50:00.784Z,1.90
2018-07-16T03:51:01.027Z,2.40
2018-07-16T03:52:01.268Z,2.50
2018-07-16T03:53:01.510Z,2.30
2018-07-16T03:54:01.753Z,1.80
2018-07-16T03:55:01.995Z,2.30
2018-07-16T03:56:02.244Z,2.20
2018-07-16T03:57:02.482Z,2.20
2018-07-16T03:58:02.722Z,2.10
2018-07-16T03:59:02.964Z,2.20
2018-07-16T04:00:03.207Z,2.50
2018-07-16T04:01:03.450Z,1.90
2018-07-16T04:02:03.694Z,2.10
2018-07-16T04:03:03.935Z,1.70
2018-07-16T04:04:04.176Z,2.30
2018-07-16T04:05:04.420Z,2.40
2018-07-16T04:06:04.662Z,2.40
2018-07-16T04:07:04.905Z,2.20
2018-07-16T04:08:05.148Z,1.90
2018-07-16T04:09:05.390Z,2.00
2018-07-16T04:10:05.633Z,2.40
2018-07-16T04:11:05.876Z,2.20
2018-07-16T04:12:06.117Z,2.00
2018-07-16T04:13:06.368Z,2.10
2018-07-16T04:14:06.606Z,2.30
2018-07-16T04:15:06.848Z,2.00
2018-07-16T04:16:07.091Z,2.10
2018-07-16T04:17:07.338Z,1.90
2018-07-16T04:18:07.580Z,2.50
2018-07-16T04:19:07.820Z,2.20
2018-07-16T04:20:08.066Z,2.80
2018-07-16T04:21:08.307Z,2.40
2018-07-16T04:22:08.553Z,2.00
2018-07-16T04:23:08.794Z,1.90
2018-07-16T04:24:09.037Z,2.40
2018-07-16T04:25:09.279Z,2.50
2018-07-16T04:26:09.523Z,2.30
2018-07-16T04:27:09.765Z,2.20
2018-07-16T04:28:10.009Z,2.30
2018-07-16T04:29:10.251Z,2.40
2018-07-16T04:30:10.495Z,2.00
2018-07-16T04:31:10.738Z,2.00
2018-07-16T04:32:10.981Z,2.00
2018-07-16T04:33:11.225Z,2.20
2018-07-16T04:34:11.469Z,2.20
2018-07-16T04:35:11.711Z,2.10
2018-07-16T04:36:11.955Z,2.20
2018-07-16T04:37:12.197Z,2.30
2018-07-16T04:38:12.439Z,2.40
2018-07-16T04:39:12.685Z,1.90
2018-07-16T04:40:12.925Z,2.40
2018-07-16T04:41:13.167Z,2.20
2018-07-16T04:42:13.413Z,2.40
2018-07-16T04:43:13.654Z,2.30
2018-07-16T04:44:13.896Z,2.10
2018-07-16T04:45:14.142Z,2.60
2018-07-16T04:46:14.389Z,2.10
2018-07-16T04:47:14.632Z,2.40
2018-07-16T04:48:14.875Z,2.70
2018-07-16T04:49:15.121Z,2.00
2018-07-16T04:50:15.363Z,2.20
2018-07-16T04:51:15.607Z,2.20
2018-07-16T04:52:15.849Z,2.00
2018-07-16T04:53:16.095Z,2.20
2018-07-16T04:54:16.337Z,2.00
2018-07-16T04:55:16.580Z,2.20
2018-07-16T04:56:16.909Z,2.40
2018-07-16T04:57:17.070Z,2.00
2018-07-16T04:58:17.311Z,2.10
2018-07-16T04:59:17.554Z,2.40
2018-07-16T05:00:17.801Z,2.60
2018-07-16T05:01:18.044Z,2.30
2018-07-16T05:02:18.287Z,2.20
2018-07-16T05:03:18.620Z,2.10
2018-07-16T05:04:18.777Z,2.00
2018-07-16T05:05:19.022Z,1.90
2018-07-16T05:06:19.264Z,2.00
2018-07-16T05:07:19.510Z,1.80
2018-07-16T05:08:19.752Z,1.90
2018-07-16T05:09:19.996Z,1.90
2018-07-16T05:10:20.242Z,2.20
2018-07-16T05:11:20.485Z,2.10
2018-07-16T05:12:20.732Z,2.00
2018-07-16T05:13:20.981Z,2.00
2018-07-16T05:14:21.223Z,1.80
2018-07-16T05:15:21.466Z,2.20
2018-07-16T05:16:21.710Z,2.00
2018-07-16T05:17:21.955Z,2.00
2018-07-16T05:18:22.328Z,2.20
2018-07-16T05:19:22.445Z,1.90
2018-07-16T05:20:22.734Z,2.20
2018-07-16T05:21:22.953Z,2.10
2018-07-16T05:22:23.197Z,2.20
2018-07-16T05:23:23.441Z,1.70
2018-07-16T05:24:23.688Z,1.80
2018-07-16T05:25:23.934Z,2.10
2018-07-16T05:26:24.176Z,2.10
2018-07-16T05:27:24.423Z,1.70
2018-07-16T05:28:24.666Z,1.80
2018-07-16T05:29:24.910Z,1.90
2018-07-16T05:30:25.154Z,2.00
2018-07-16T05:31:25.449Z,1.90
2018-07-16T05:32:25.899Z,2.30
2018-07-16T05:33:25.890Z,2.20
2018-07-16T05:34:26.134Z,1.90
2018-07-16T05:35:26.379Z,2.30
2018-07-16T05:36:26.624Z,2.00
2018-07-16T05:37:26.869Z,2.00
2018-07-16T05:38:27.113Z,2.20
2018-07-16T05:39:27.365Z,1.90
2018-07-16T05:40:27.603Z,2.10
2018-07-16T05:41:27.848Z,2.30
2018-07-16T05:42:28.095Z,1.90
2018-07-16T05:43:28.339Z,2.00
2018-07-16T05:44:28.585Z,2.10
2018-07-16T05:45:28.830Z,2.10
2018-07-16T05:46:29.074Z,1.90
2018-07-16T05:47:29.318Z,2.00
2018-07-16T05:48:29.562Z,2.10
2018-07-16T05:49:29.805Z,1.80
2018-07-16T05:50:30.053Z,1.90
2018-07-16T05:51:30.299Z,1.90
2018-07-16T05:52:30.545Z,1.90
2018-07-16T05:53:30.790Z,1.90
2018-07-16T05:54:31.035Z,1.80
2018-07-16T05:55:31.280Z,2.00
2018-07-16T05:56:31.526Z,1.80
2018-07-16T05:57:31.773Z,1.90
2018-07-16T05:58:32.019Z,2.30
2018-07-16T05:59:32.264Z,2.10
2018-07-16T06:00:32.510Z,2.50
2018-07-16T06:01:32.757Z,1.70
2018-07-16T06:02:33.001Z,2.20
2018-07-16T06:03:33.247Z,2.30
2018-07-16T06:04:33.493Z,2.30
2018-07-16T06:05:33.739Z,1.90
2018-07-16T06:06:33.982Z,1.90
2018-07-16T06:07:34.227Z,1.90
2018-07-16T06:08:34.473Z,2.00
2018-07-16T06:09:34.719Z,1.90
2018-07-16T06:10:34.967Z,2.30
2018-07-16T06:11:35.216Z,2.00
2018-07-16T06:12:35.462Z,2.10
2018-07-16T06:13:35.704Z,2.20
2018-07-16T06:14:35.973Z,2.10
2018-07-16T06:15:36.198Z,2.00
2018-07-16T06:16:36.443Z,2.20
2018-07-16T06:17:36.696Z,2.10
2018-07-16T06:18:36.939Z,2.30
2018-07-16T06:19:37.191Z,2.40
2018-07-16T06:20:37.437Z,2.20
2018-07-16T06:21:37.683Z,2.10
2018-07-16T06:22:37.930Z,2.30
2018-07-16T06:23:38.176Z,1.90
2018-07-16T06:24:38.422Z,2.10
2018-07-16T06:25:38.671Z,2.30
2018-07-16T06:26:38.913Z,2.60
2018-07-16T06:27:39.160Z,2.60
2018-07-16T06:28:39.410Z,3.10
2018-07-16T06:29:39.653Z,2.90
2018-07-16T06:30:39.898Z,2.90
2018-07-16T06:31:40.148Z,2.70
2018-07-16T06:32:40.392Z,2.80
2018-07-16T06:33:40.637Z,3.00
2018-07-16T06:34:40.882Z,2.80
2018-07-16T06:35:41.132Z,3.00
2018-07-16T06:36:41.378Z,3.10
2018-07-16T06:37:41.624Z,3.70
2018-07-16T06:38:41.874Z,3.70
2018-07-16T06:39:42.171Z,3.40
2018-07-16T06:40:42.586Z,3.20
2018-07-16T06:41:42.618Z,2.80
2018-07-16T06:42:42.856Z,3.30
2018-07-16T06:43:43.101Z,3.10
2018-07-16T06:44:43.349Z,3.20
2018-07-16T06:45:43.597Z,2.50
2018-07-16T06:46:43.843Z,3.00
2018-07-16T06:47:44.109Z,2.40
2018-07-16T06:48:44.336Z,2.40
2018-07-16T06:49:44.582Z,2.30
2018-07-16T06:50:44.830Z,2.40
2018-07-16T06:51:45.079Z,2.80
2018-07-16T06:52:45.323Z,2.60
2018-07-16T06:53:45.568Z,2.70
2018-07-16T06:54:45.815Z,2.60
2018-07-16T06:55:46.062Z,2.60
2018-07-16T06:56:46.312Z,2.70
2018-07-16T06:57:46.556Z,2.70
2018-07-16T06:58:46.804Z,2.80
2018-07-16T06:59:47.051Z,3.10
2018-07-16T07:00:47.298Z,2.70
2018-07-16T07:01:47.546Z,2.70
2018-07-16T07:02:47.793Z,2.60
2018-07-16T07:03:48.040Z,2.70
2018-07-16T07:04:48.289Z,2.70
2018-07-16T07:05:48.534Z,2.70
2018-07-16T07:06:48.785Z,2.60
2018-07-16T07:07:49.028Z,3.20
2018-07-16T07:08:49.279Z,2.70
2018-07-16T07:09:49.525Z,3.00
2018-07-16T07:10:49.771Z,3.40
2018-07-16T07:11:50.019Z,3.60
2018-07-16T07:12:50.268Z,3.20
2018-07-16T07:13:50.512Z,3.10
2018-07-16T07:14:50.759Z,3.20
2018-07-16T07:15:51.006Z,3.30
2018-07-16T07:16:51.255Z,2.90
2018-07-16T07:17:51.501Z,3.20
2018-07-16T07:18:51.750Z,2.80
2018-07-16T07:19:51.995Z,2.70
2018-07-16T07:20:52.242Z,3.20
2018-07-16T07:21:52.489Z,3.00
2018-07-16T07:22:52.736Z,2.90
2018-07-16T07:23:52.988Z,3.00
2018-07-16T07:24:53.234Z,2.80
2018-07-16T07:25:53.480Z,2.80
2018-07-16T07:26:53.728Z,2.70
2018-07-16T07:27:53.975Z,3.30
2018-07-16T07:28:54.223Z,3.00
2018-07-16T07:29:54.472Z,3.80
2018-07-16T07:30:54.721Z,3.70
2018-07-16T07:31:54.970Z,3.80
2018-07-16T07:32:55.219Z,3.70
2018-07-16T07:33:55.468Z,4.10
2018-07-16T07:34:55.734Z,3.80
2018-07-16T07:35:56.024Z,3.80
2018-07-16T07:36:56.213Z,3.80
2018-07-16T07:37:56.462Z,3.40
2018-07-16T07:38:56.716Z,3.40
2018-07-16T07:39:56.962Z,4.20
2018-07-16T07:40:57.210Z,3.70
2018-07-16T07:41:57.459Z,3.30
2018-07-16T07:42:57.712Z,3.90
2018-07-16T07:43:57.959Z,3.40
2018-07-16T07:44:58.208Z,3.20
2018-07-16T07:45:58.458Z,3.20
2018-07-16T07:46:58.707Z,3.70
2018-07-16T07:47:58.960Z,3.50
2018-07-16T07:48:59.208Z,3.50
2018-07-16T07:49:59.458Z,3.70
2018-07-16T07:50:59.709Z,3.30
2018-07-16T07:51:59.958Z,3.30
2018-07-16T07:53:00.209Z,3.80
2018-07-16T07:54:00.459Z,3.30
2018-07-16T07:55:01.065Z,3.50
2018-07-16T07:56:00.962Z,3.10
2018-07-16T07:57:01.225Z,3.40
2018-07-16T07:58:01.462Z,3.30
2018-07-16T07:59:01.715Z,3.40
2018-07-16T08:00:01.966Z,3.70
2018-07-16T08:01:02.214Z,3.50
2018-07-16T08:02:02.467Z,3.30
2018-07-16T08:03:02.717Z,3.50
2018-07-16T08:04:02.969Z,4.00
2018-07-16T08:05:03.222Z,3.80
2018-07-16T08:06:03.474Z,3.80
2018-07-16T08:07:03.726Z,3.00
2018-07-16T08:08:03.978Z,3.40
2018-07-16T08:09:04.232Z,3.50
2018-07-16T08:10:04.484Z,3.60
2018-07-16T08:11:04.737Z,3.80
2018-07-16T08:12:04.989Z,3.80
2018-07-16T08:13:05.241Z,3.50
2018-07-16T08:14:05.495Z,3.40
2018-07-16T08:15:05.747Z,3.50
2018-07-16T08:16:05.999Z,4.00
2018-07-16T08:17:06.252Z,3.60
2018-07-16T08:18:06.505Z,3.60
2018-07-16T08:19:06.758Z,3.70
2018-07-16T08:20:07.012Z,3.60
2018-07-16T08:21:07.313Z,3.80
2018-07-16T08:22:07.518Z,3.60
2018-07-16T08:23:07.770Z,3.60
2018-07-16T08:24:08.023Z,3.50
2018-07-16T08:25:08.275Z,3.90
2018-07-16T08:26:08.529Z,3.70
2018-07-16T08:27:08.781Z,3.40
2018-07-16T08:28:09.082Z,3.80
2018-07-16T08:29:09.287Z,3.70
2018-07-16T08:30:09.546Z,3.20
2018-07-16T08:31:09.790Z,3.40
2018-07-16T08:32:10.044Z,3.20
2018-07-16T08:33:10.295Z,3.40
2018-07-16T08:34:10.548Z,3.40
2018-07-16T08:35:10.806Z,3.20
2018-07-16T08:36:11.055Z,3.60
2018-07-16T08:37:11.306Z,3.10
2018-07-16T08:38:11.562Z,3.20
2018-07-16T08:39:11.878Z,3.50
2018-07-16T08:40:12.072Z,3.60
2018-07-16T08:41:12.328Z,4.10
2018-07-16T08:42:12.576Z,4.10
2018-07-16T08:43:12.827Z,3.50
2018-07-16T08:44:13.080Z,3.70
2018-07-16T08:45:13.333Z,3.40
2018-07-16T08:46:13.624Z,3.70
2018-07-16T08:47:13.841Z,3.10
2018-07-16T08:48:14.094Z,3.10
2018-07-16T08:49:14.349Z,3.20
2018-07-16T08:50:14.602Z,3.30
2018-07-16T08:51:14.852Z,3.30
2018-07-16T08:52:15.107Z,3.50
2018-07-16T08:53:15.359Z,3.40
2018-07-16T08:54:15.615Z,3.10
2018-07-16T08:55:15.866Z,3.10
2018-07-16T08:56:16.120Z,2.90
2018-07-16T08:57:16.376Z,3.70
2018-07-16T08:58:16.630Z,3.10
2018-07-16T08:59:16.905Z,3.70
2018-07-16T09:00:17.138Z,3.40
2018-07-16T09:01:17.392Z,3.40
2018-07-16T09:02:17.650Z,2.80
2018-07-16T09:03:17.902Z,2.70
2018-07-16T09:04:18.155Z,2.50
2018-07-16T09:05:18.411Z,2.50
2018-07-16T09:06:18.664Z,2.90
2018-07-16T09:07:18.915Z,2.50
2018-07-16T09:08:19.198Z,2.50
2018-07-16T09:09:19.423Z,2.70
2018-07-16T09:10:19.677Z,2.70
2018-07-16T09:11:20.002Z,2.70
2018-07-16T09:12:20.185Z,2.70
2018-07-16T09:13:20.520Z,3.10
2018-07-16T09:14:20.688Z,2.60
2018-07-16T09:15:20.945Z,3.00
2018-07-16T09:16:21.199Z,2.90
2018-07-16T09:17:21.450Z,2.80
2018-07-16T09:18:21.703Z,2.70
2018-07-16T09:19:21.957Z,2.80
2018-07-16T09:20:22.210Z,2.90
2018-07-16T09:21:22.463Z,3.10
2018-07-16T09:22:22.717Z,3.30
2018-07-16T09:23:22.975Z,3.00
2018-07-16T09:24:23.227Z,3.20
2018-07-16T09:25:23.535Z,2.90
2018-07-16T09:26:23.735Z,3.20
2018-07-16T09:27:23.987Z,2.70
2018-07-16T09:28:24.242Z,2.40
2018-07-16T09:29:24.496Z,2.70
2018-07-16T09:30:24.750Z,3.10
2018-07-16T09:31:25.005Z,2.60
2018-07-16T09:32:25.258Z,2.70
2018-07-16T09:33:25.513Z,3.10
2018-07-16T09:34:25.769Z,2.70
2018-07-16T09:35:26.022Z,3.00
2018-07-16T09:36:26.277Z,2.40
2018-07-16T09:37:26.537Z,2.70
2018-07-16T09:38:26.790Z,2.60
2018-07-16T09:39:27.044Z,2.60
2018-07-16T09:40:27.301Z,2.40
2018-07-16T09:41:27.554Z,2.70
2018-07-16T09:42:27.812Z,2.30
2018-07-16T09:43:28.063Z,2.60
2018-07-16T09:44:28.390Z,2.30
2018-07-16T09:45:28.573Z,2.60
2018-07-16T09:46:28.827Z,2.60
2018-07-16T09:47:29.083Z,2.40
2018-07-16T09:48:29.338Z,2.60
2018-07-16T09:49:29.594Z,2.30
2018-07-16T09:50:29.849Z,2.80
2018-07-16T09:51:30.105Z,2.70
2018-07-16T09:52:30.361Z,2.70
2018-07-16T09:53:30.616Z,2.60
2018-07-16T09:54:30.871Z,2.40
2018-07-16T09:55:31.127Z,2.40
2018-07-16T09:56:31.453Z,2.50
2018-07-16T09:57:31.642Z,2.30
2018-07-16T09:58:31.901Z,2.60
2018-07-16T09:59:32.156Z,2.40
2018-07-16T10:00:32.408Z,2.80
2018-07-16T10:01:32.666Z,2.30
2018-07-16T10:02:32.920Z,2.90
2018-07-16T10:03:33.177Z,3.00
2018-07-16T10:04:33.431Z,2.90
2018-07-16T10:05:33.689Z,2.30
2018-07-16T10:06:33.947Z,2.20
2018-07-16T10:07:34.199Z,2.00
2018-07-16T10:08:34.505Z,2.30
2018-07-16T10:09:34.712Z,2.40
2018-07-16T10:10:34.968Z,2.30
2018-07-16T10:11:35.222Z,2.50
2018-07-16T10:12:35.477Z,2.10
2018-07-16T10:13:35.733Z,2.70
2018-07-16T10:14:35.986Z,2.80
2018-07-16T10:15:36.240Z,3.20
2018-07-16T10:16:36.496Z,2.60
2018-07-16T10:17:36.750Z,2.70
2018-07-16T10:18:37.003Z,3.20
2018-07-16T10:19:37.258Z,3.10
2018-07-16T10:20:37.639Z,2.90
2018-07-16T10:21:37.766Z,2.70
2018-07-16T10:22:38.021Z,3.20
2018-07-16T10:23:38.274Z,2.80
2018-07-16T10:24:38.527Z,2.40
2018-07-16T10:25:38.782Z,2.40
2018-07-16T10:26:39.037Z,2.80
2018-07-16T10:27:39.295Z,2.40
2018-07-16T10:28:39.548Z,2.90
2018-07-16T10:29:39.802Z,2.60
2018-07-16T10:30:40.058Z,2.50
2018-07-16T10:31:40.314Z,2.20
2018-07-16T10:32:40.571Z,2.00
2018-07-16T10:33:40.845Z,2.00
2018-07-16T10:34:41.084Z,2.00
2018-07-16T10:35:41.340Z,1.90
2018-07-16T10:36:41.597Z,2.40
2018-07-16T10:37:41.852Z,2.00
2018-07-16T10:38:42.109Z,1.80
2018-07-16T10:39:42.374Z,2.00
2018-07-16T10:40:42.620Z,1.60
2018-07-16T10:41:42.876Z,1.60
2018-07-16T10:42:43.134Z,1.90
2018-07-16T10:43:43.389Z,2.30
2018-07-16T10:44:43.647Z,1.70
2018-07-16T10:45:43.907Z,1.80
2018-07-16T10:46:44.164Z,1.60
2018-07-16T10:47:44.418Z,1.70
2018-07-16T10:48:44.677Z,1.80
2018-07-16T10:49:44.970Z,1.50
2018-07-16T10:50:45.189Z,1.40
2018-07-16T10:51:45.445Z,1.70
2018-07-16T10:52:45.703Z,1.80
2018-07-16T10:53:45.958Z,1.70
2018-07-16T10:54:46.213Z,1.50
2018-07-16T10:55:46.473Z,1.50
2018-07-16T10:56:46.727Z,1.60
2018-07-16T10:57:46.985Z,1.50
2018-07-16T10:58:47.241Z,1.40
2018-07-16T10:59:47.502Z,1.70
2018-07-16T11:00:47.755Z,1.50
2018-07-16T11:01:48.014Z,1.40
2018-07-16T11:02:48.269Z,1.70
2018-07-16T11:03:48.530Z,1.50
2018-07-16T11:04:48.786Z,1.50
2018-07-16T11:05:49.050Z,1.30
2018-07-16T11:06:49.295Z,1.40
2018-07-16T11:07:49.551Z,1.50
2018-07-16T11:08:49.807Z,1.50
2018-07-16T11:09:50.066Z,1.40
2018-07-16T11:10:50.323Z,1.40
2018-07-16T11:11:50.580Z,1.50
2018-07-16T11:12:50.840Z,1.30
2018-07-16T11:13:51.098Z,1.40
2018-07-16T11:14:51.398Z,1.30
2018-07-16T11:15:51.611Z,1.30
2018-07-16T11:16:51.869Z,1.10
2018-07-16T11:17:52.128Z,1.30
2018-07-16T11:18:52.382Z,1.20
2018-07-16T11:19:52.638Z,1.20
2018-07-16T11:20:52.966Z,1.30
2018-07-16T11:21:53.153Z,1.50
2018-07-16T11:22:53.411Z,1.30
2018-07-16T11:23:53.666Z,1.40
2018-07-16T11:24:53.922Z,1.50
2018-07-16T11:25:54.180Z,1.50
2018-07-16T11:26:54.433Z,1.60
2018-07-16T11:27:54.688Z,1.80
2018-07-16T11:28:54.941Z,2.00
2018-07-16T11:29:55.196Z,1.70
2018-07-16T11:30:55.452Z,1.50
2018-07-16T11:31:55.703Z,1.70
2018-07-16T11:32:55.957Z,1.90
2018-07-16T11:33:56.211Z,2.10
2018-07-16T11:34:56.464Z,1.80
2018-07-16T11:35:56.722Z,1.70
2018-07-16T11:36:56.972Z,1.90
2018-07-16T11:37:57.223Z,2.30
2018-07-16T11:38:57.476Z,1.90
2018-07-16T11:39:57.727Z,1.80
2018-07-16T11:40:57.982Z,1.80
2018-07-16T11:41:58.235Z,1.80
2018-07-16T11:42:58.487Z,2.00
2018-07-16T11:43:58.738Z,2.00
2018-07-16T11:44:58.992Z,1.90
2018-07-16T11:45:59.305Z,1.70
2018-07-16T11:46:59.502Z,2.00
2018-07-16T11:47:59.751Z,1.70
2018-07-16T11:49:00.007Z,1.80
2018-07-16T11:50:00.259Z,2.20
2018-07-16T11:51:00.510Z,2.10
2018-07-16T11:52:00.765Z,1.80
2018-07-16T11:53:01.019Z,2.20
2018-07-16T11:54:01.270Z,2.00
2018-07-16T11:55:01.523Z,1.70
2018-07-16T11:56:01.777Z,2.20
2018-07-16T11:57:02.031Z,1.90
2018-07-16T11:58:02.285Z,1.90
2018-07-16T11:59:02.680Z,1.70
2018-07-16T12:00:02.792Z,1.80
2018-07-16T12:01:03.045Z,1.40
2018-07-16T12:02:03.299Z,1.80
2018-07-16T12:03:03.555Z,1.90
2018-07-16T12:04:03.808Z,1.50
2018-07-16T12:05:04.096Z,1.70
2018-07-16T12:06:04.320Z,1.90
2018-07-16T12:07:04.574Z,1.60
2018-07-16T12:08:04.828Z,1.50
2018-07-16T12:09:05.084Z,1.50
2018-07-16T12:10:05.339Z,1.40
2018-07-16T12:11:05.595Z,1.50
2018-07-16T12:12:05.849Z,1.40
2018-07-16T12:13:06.104Z,1.40
2018-07-16T12:14:06.358Z,1.40
2018-07-16T12:15:06.616Z,1.50
2018-07-16T12:16:06.870Z,1.20
2018-07-16T12:17:07.126Z,1.40
2018-07-16T12:18:07.398Z,1.20
2018-07-16T12:19:07.679Z,1.40
2018-07-16T12:20:07.894Z,1.00
2018-07-16T12:21:08.149Z,1.30
2018-07-16T12:22:08.406Z,1.30
2018-07-16T12:23:08.662Z,1.30
2018-07-16T12:24:08.916Z,1.20
2018-07-16T12:25:09.176Z,1.00
2018-07-16T12:26:09.428Z,1.10
2018-07-16T12:27:09.682Z,1.30
2018-07-16T12:28:09.938Z,1.00
2018-07-16T12:29:10.194Z,1.10
2018-07-16T12:30:10.452Z,1.00
2018-07-16T12:31:10.709Z,0.90
2018-07-16T12:32:10.965Z,1.10
2018-07-16T12:33:11.227Z,0.90
2018-07-16T12:34:11.479Z,1.10
2018-07-16T12:35:11.734Z,1.00
2018-07-16T12:36:11.992Z,1.00
2018-07-16T12:37:12.249Z,0.90
2018-07-16T12:38:12.505Z,0.90
2018-07-16T12:39:12.762Z,1.00
2018-07-16T12:40:13.019Z,1.10
2018-07-16T12:41:13.275Z,0.90
2018-07-16T12:42:13.535Z,1.00
2018-07-16T12:43:13.789Z,1.00
2018-07-16T12:44:14.046Z,1.00
2018-07-16T12:45:14.302Z,1.30
2018-07-16T12:46:14.559Z,1.10
2018-07-16T12:47:14.815Z,1.10
2018-07-16T12:48:15.108Z,1.20
2018-07-16T12:49:15.327Z,1.50
2018-07-16T12:50:15.585Z,1.50
2018-07-16T12:51:15.840Z,1.50
2018-07-16T12:52:16.097Z,1.70
2018-07-16T12:53:16.352Z,1.50
2018-07-16T12:54:16.606Z,1.70
2018-07-16T12:55:16.860Z,1.70
2018-07-16T12:56:17.114Z,1.90
2018-07-16T12:57:17.525Z,1.50
2018-07-16T12:58:17.625Z,1.90
2018-07-16T12:59:17.879Z,1.70
2018-07-16T13:00:18.131Z,2.00
2018-07-16T13:01:18.385Z,1.80
2018-07-16T13:02:18.636Z,1.90
2018-07-16T13:03:18.888Z,2.00
2018-07-16T13:04:19.141Z,2.20
2018-07-16T13:05:19.394Z,1.80
2018-07-16T13:06:19.647Z,1.90
2018-07-16T13:07:19.900Z,2.20
2018-07-16T13:08:20.147Z,2.10
2018-07-16T13:09:20.400Z,2.20
2018-07-16T13:10:20.651Z,2.30
2018-07-16T13:11:20.902Z,2.20
2018-07-16T13:12:21.156Z,2.50
2018-07-16T13:13:21.405Z,2.30
2018-07-16T13:14:21.654Z,2.40
2018-07-16T13:15:21.910Z,2.40
2018-07-16T13:16:22.159Z,2.40
2018-07-16T13:17:22.413Z,2.00
2018-07-16T13:18:22.666Z,2.80
2018-07-16T13:19:22.922Z,2.30
2018-07-16T13:20:23.172Z,2.40
2018-07-16T13:21:23.431Z,2.20